sensor_id;sensor_type;location;lat;lon;timestamp;pressure;altitude;pressure_sealevel;temperature;humidity
83025;BME280;72958;53.326;-1.496;2023-11-21T00:00:24;99469.43;;;10.21;52.39
83025;BME280;72958;53.326;-1.496;2023-11-21T00:02:54;99468.43;;;10.55;52.30
83025;BME280;72958;53.326;-1.496;2023-11-21T00:06:36;99477.14;;;10.80;51.21
83025;BME280;72958;53.326;-1.496;2023-11-21T00:10:26;99484.01;;;11.61;49.24
83025;BME280;72958;53.326;-1.496;2023-11-21T00:13:26;99479.96;;;10.36;52.16
83025;BME280;72958;53.326;-1.496;2023-11-21T00:16:13;99485.12;;;10.64;51.89
83025;BME280;72958;53.326;-1.496;2023-11-21T00:19:32;99498.62;;;11.05;51.01
83025;BME280;72958;53.326;-1.496;2023-11-21T00:22:26;99504.43;;;10.46;51.45
83025;BME280;72958;53.326;-1.496;2023-11-21T00:24:57;99511.75;;;9.75;54.13
83025;BME280;72958;53.326;-1.496;2023-11-21T00:27:41;99519.70;;;10.95;51.39
83025;BME280;72958;53.326;-1.496;2023-11-21T00:30:07;99515.71;;;10.43;51.69
83025;BME280;72958;53.326;-1.496;2023-11-21T00:32:33;99517.08;;;10.46;51.55
83025;BME280;72958;53.326;-1.496;2023-11-21T00:35:22;99516.84;;;10.87;50.87
83025;BME280;72958;53.326;-1.496;2023-11-21T00:39:04;99530.65;;;9.79;52.85
83025;BME280;72958;53.326;-1.496;2023-11-21T00:41:31;99538.27;;;9.98;53.12
83025;BME280;72958;53.326;-1.496;2023-11-21T00:44:43;99529.15;;;9.80;53.13
83025;BME280;72958;53.326;-1.496;2023-11-21T00:47:14;99541.71;;;9.93;52.93
83025;BME280;72958;53.326;-1.496;2023-11-21T00:50:13;99541.14;;;8.89;56.11
83025;BME280;72958;53.326;-1.496;2023-11-21T00:52:46;99538.95;;;9.11;55.03
83025;BME280;72958;53.326;-1.496;2023-11-21T00:55:25;99542.17;;;9.61;53.40
83025;BME280;72958;53.326;-1.496;2023-11-21T00:58:57;99546.76;;;9.45;53.27
83025;BME280;72958;53.326;-1.496;2023-11-21T01:01:34;99546.79;;;9.11;53.92
83025;BME280;72958;53.326;-1.496;2023-11-21T01:04:43;99551.27;;;9.88;52.50
83025;BME280;72958;53.326;-1.496;2023-11-21T01:07:30;99557.44;;;9.85;51.32
83025;BME280;72958;53.326;-1.496;2023-11-21T01:10:11;99568.01;;;9.81;52.82
83025;BME280;72958;53.326;-1.496;2023-11-21T01:12:44;99568.07;;;9.74;51.65
83025;BME280;72958;53.326;-1.496;2023-11-21T01:15:21;99570.66;;;10.10;50.84
83025;BME280;72958;53.326;-1.496;2023-11-21T01:18:39;99577.16;;;9.87;50.87
83025;BME280;72958;53.326;-1.496;2023-11-21T01:21:10;99579.64;;;9.55;51.47
83025;BME280;72958;53.326;-1.496;2023-11-21T01:23:53;99591.65;;;10.27;50.47
83025;BME280;72958;53.326;-1.496;2023-11-21T01:26:59;99593.08;;;10.36;49.98
83025;BME280;72958;53.326;-1.496;2023-11-21T01:30:41;99586.64;;;10.13;49.74
83025;BME280;72958;53.326;-1.496;2023-11-21T01:33:57;99595.83;;;10.77;48.27
83025;BME280;72958;53.326;-1.496;2023-11-21T01:36:43;99593.39;;;10.91;48.24
83025;BME280;72958;53.326;-1.496;2023-11-21T01:39:31;99608.53;;;10.49;47.73
83025;BME280;72958;53.326;-1.496;2023-11-21T01:42:08;99605.42;;;10.40;48.69
83025;BME280;72958;53.326;-1.496;2023-11-21T01:44:58;99613.70;;;10.53;48.43
83025;BME280;72958;53.326;-1.496;2023-11-21T01:47:31;99608.76;;;10.68;47.58
83025;BME280;72958;53.326;-1.496;2023-11-21T01:50:21;99625.86;;;11.06;46.57
83025;BME280;72958;53.326;-1.496;2023-11-21T01:52:55;99630.91;;;10.68;47.36
83025;BME280;72958;53.326;-1.496;2023-11-21T01:55:34;99630.49;;;9.27;51.57
83025;BME280;72958;53.326;-1.496;2023-11-21T01:58:40;99636.67;;;9.37;51.91
83025;BME280;72958;53.326;-1.496;2023-11-21T02:01:09;99635.42;;;9.60;50.61
83025;BME280;72958;53.326;-1.496;2023-11-21T02:03:38;99640.03;;;9.79;50.85
83025;BME280;72958;53.326;-1.496;2023-11-21T02:06:37;99639.13;;;10.08;49.13
83025;BME280;72958;53.326;-1.496;2023-11-21T02:09:29;99644.56;;;10.15;48.76
83025;BME280;72958;53.326;-1.496;2023-11-21T02:12:03;99646.56;;;10.74;46.83
83025;BME280;72958;53.326;-1.496;2023-11-21T02:14:44;99651.42;;;9.41;50.23
83025;BME280;72958;53.326;-1.496;2023-11-21T02:17:32;99646.52;;;10.03;48.80
83025;BME280;72958;53.326;-1.496;2023-11-21T02:20:28;99651.05;;;9.68;49.04
83025;BME280;72958;53.326;-1.496;2023-11-21T02:23:02;99644.40;;;9.78;49.38
83025;BME280;72958;53.326;-1.496;2023-11-21T02:25:49;99653.07;;;9.78;49.07
83025;BME280;72958;53.326;-1.496;2023-11-21T02:28:16;99650.25;;;9.95;48.85
83025;BME280;72958;53.326;-1.496;2023-11-21T02:32:48;99656.14;;;9.84;49.57
83025;BME280;72958;53.326;-1.496;2023-11-21T02:35:20;99650.24;;;9.34;50.34
83025;BME280;72958;53.326;-1.496;2023-11-21T02:37:47;99641.15;;;9.34;49.29
83025;BME280;72958;53.326;-1.496;2023-11-21T02:40:31;99640.09;;;9.20;50.94
83025;BME280;72958;53.326;-1.496;2023-11-21T02:43:05;99643.45;;;9.16;50.71
83025;BME280;72958;53.326;-1.496;2023-11-21T02:46:05;99647.77;;;9.33;50.41
83025;BME280;72958;53.326;-1.496;2023-11-21T02:48:41;99651.45;;;9.15;50.87
83025;BME280;72958;53.326;-1.496;2023-11-21T02:51:17;99651.49;;;9.09;50.82
83025;BME280;72958;53.326;-1.496;2023-11-21T02:54:07;99652.32;;;9.78;50.09
83025;BME280;72958;53.326;-1.496;2023-11-21T02:56:31;99651.07;;;9.36;50.90
83025;BME280;72958;53.326;-1.496;2023-11-21T02:59:31;99647.49;;;9.89;48.75
83025;BME280;72958;53.326;-1.496;2023-11-21T03:02:05;99647.62;;;10.12;47.41
83025;BME280;72958;53.326;-1.496;2023-11-21T03:04:42;99656.64;;;10.44;48.25
83025;BME280;72958;53.326;-1.496;2023-11-21T03:07:16;99665.29;;;10.39;47.32
83025;BME280;72958;53.326;-1.496;2023-11-21T03:09:41;99669.06;;;9.93;49.10
83025;BME280;72958;53.326;-1.496;2023-11-21T03:12:30;99671.91;;;9.55;49.54
83025;BME280;72958;53.326;-1.496;2023-11-21T03:15:00;99676.16;;;10.24;48.23
83025;BME280;72958;53.326;-1.496;2023-11-21T03:18:43;99671.53;;;10.59;47.21
83025;BME280;72958;53.326;-1.496;2023-11-21T03:21:37;99667.84;;;10.32;47.23
83025;BME280;72958;53.326;-1.496;2023-11-21T03:24:30;99665.53;;;10.85;47.00
83025;BME280;72958;53.326;-1.496;2023-11-21T03:27:05;99664.53;;;10.48;47.87
83025;BME280;72958;53.326;-1.496;2023-11-21T03:29:26;99667.75;;;9.20;50.93
83025;BME280;72958;53.326;-1.496;2023-11-21T03:32:05;99669.84;;;10.22;48.89
83025;BME280;72958;53.326;-1.496;2023-11-21T03:34:31;99671.12;;;9.12;51.74
83025;BME280;72958;53.326;-1.496;2023-11-21T03:37:19;99662.59;;;10.05;50.02
83025;BME280;72958;53.326;-1.496;2023-11-21T03:39:49;99671.17;;;9.56;50.76
83025;BME280;72958;53.326;-1.496;2023-11-21T03:42:18;99681.60;;;9.38;51.76
83025;BME280;72958;53.326;-1.496;2023-11-21T03:45:07;99679.40;;;9.24;51.98
83025;BME280;72958;53.326;-1.496;2023-11-21T03:47:50;99681.27;;;9.82;50.53
83025;BME280;72958;53.326;-1.496;2023-11-21T03:50:28;99680.82;;;9.51;51.49
83025;BME280;72958;53.326;-1.496;2023-11-21T03:52:57;99681.00;;;9.02;53.16
83025;BME280;72958;53.326;-1.496;2023-11-21T03:56:08;99696.20;;;8.86;54.12
83025;BME280;72958;53.326;-1.496;2023-11-21T03:58:39;99691.06;;;9.07;54.09
83025;BME280;72958;53.326;-1.496;2023-11-21T04:01:07;99708.18;;;9.30;53.56
83025;BME280;72958;53.326;-1.496;2023-11-21T04:03:43;99718.90;;;9.18;53.54
83025;BME280;72958;53.326;-1.496;2023-11-21T04:06:14;99733.28;;;9.83;50.82
83025;BME280;72958;53.326;-1.496;2023-11-21T04:09:01;99729.52;;;10.72;48.63
83025;BME280;72958;53.326;-1.496;2023-11-21T04:11:44;99736.96;;;10.58;49.45
83025;BME280;72958;53.326;-1.496;2023-11-21T04:14:21;99746.62;;;10.82;47.95
83025;BME280;72958;53.326;-1.496;2023-11-21T04:16:57;99747.76;;;10.69;47.63
83025;BME280;72958;53.326;-1.496;2023-11-21T04:19:33;99752.81;;;10.41;48.46
83025;BME280;72958;53.326;-1.496;2023-11-21T04:22:03;99755.71;;;10.85;46.52
83025;BME280;72958;53.326;-1.496;2023-11-21T04:24:37;99768.33;;;10.33;50.63
83025;BME280;72958;53.326;-1.496;2023-11-21T04:27:13;99769.88;;;10.37;49.89
83025;BME280;72958;53.326;-1.496;2023-11-21T04:30:13;99772.37;;;10.72;49.22
83025;BME280;72958;53.326;-1.496;2023-11-21T04:32:43;99774.74;;;11.67;46.50
83025;BME280;72958;53.326;-1.496;2023-11-21T04:35:14;99783.64;;;10.58;49.84
83025;BME280;72958;53.326;-1.496;2023-11-21T04:38:06;99787.86;;;9.52;52.50
83025;BME280;72958;53.326;-1.496;2023-11-21T04:40:31;99796.21;;;9.99;52.74
83025;BME280;72958;53.326;-1.496;2023-11-21T04:43:02;99811.25;;;10.84;50.29
83025;BME280;72958;53.326;-1.496;2023-11-21T04:46:05;99807.79;;;9.54;54.32
83025;BME280;72958;53.326;-1.496;2023-11-21T04:49:05;99817.38;;;9.99;53.78
83025;BME280;72958;53.326;-1.496;2023-11-21T04:51:44;99808.61;;;9.06;56.53
83025;BME280;72958;53.326;-1.496;2023-11-21T04:54:17;99811.21;;;9.27;56.17
83025;BME280;72958;53.326;-1.496;2023-11-21T04:57:17;99815.37;;;8.88;57.86
83025;BME280;72958;53.326;-1.496;2023-11-21T05:00:23;99813.89;;;8.81;58.72
83025;BME280;72958;53.326;-1.496;2023-11-21T05:03:54;99826.98;;;8.89;56.92
83025;BME280;72958;53.326;-1.496;2023-11-21T05:07:17;99816.60;;;9.56;56.56
83025;BME280;72958;53.326;-1.496;2023-11-21T05:10:00;99826.05;;;9.54;55.86
83025;BME280;72958;53.326;-1.496;2023-11-21T05:13:03;99820.79;;;8.57;58.60
83025;BME280;72958;53.326;-1.496;2023-11-21T05:15:32;99826.79;;;8.59;60.37
83025;BME280;72958;53.326;-1.496;2023-11-21T05:18:41;99819.39;;;8.24;61.31
83025;BME280;72958;53.326;-1.496;2023-11-21T05:21:16;99821.00;;;9.44;57.67
83025;BME280;72958;53.326;-1.496;2023-11-21T05:23:41;99820.62;;;8.65;58.94
83025;BME280;72958;53.326;-1.496;2023-11-21T05:26:20;99836.59;;;8.96;58.66
83025;BME280;72958;53.326;-1.496;2023-11-21T05:29:05;99828.13;;;9.20;58.55
83025;BME280;72958;53.326;-1.496;2023-11-21T05:32:49;99838.09;;;8.00;62.91
83025;BME280;72958;53.326;-1.496;2023-11-21T05:35:18;99837.76;;;8.38;61.97
83025;BME280;72958;53.326;-1.496;2023-11-21T05:37:55;99856.43;;;8.35;60.70
83025;BME280;72958;53.326;-1.496;2023-11-21T05:40:36;99850.49;;;8.78;61.37
83025;BME280;72958;53.326;-1.496;2023-11-21T05:43:20;99867.45;;;9.13;59.21
83025;BME280;72958;53.326;-1.496;2023-11-21T05:46:02;99869.84;;;8.22;60.94
83025;BME280;72958;53.326;-1.496;2023-11-21T05:48:32;99868.92;;;8.32;60.95
83025;BME280;72958;53.326;-1.496;2023-11-21T05:51:11;99881.72;;;9.70;56.86
83025;BME280;72958;53.326;-1.496;2023-11-21T05:54:44;99890.01;;;9.46;57.81
83025;BME280;72958;53.326;-1.496;2023-11-21T05:57:28;99895.73;;;9.37;57.46
83025;BME280;72958;53.326;-1.496;2023-11-21T06:00:35;99902.02;;;9.15;58.71
83025;BME280;72958;53.326;-1.496;2023-11-21T06:03:05;99909.68;;;8.63;61.15
83025;BME280;72958;53.326;-1.496;2023-11-21T06:06:01;99915.58;;;7.40;65.08
83025;BME280;72958;53.326;-1.496;2023-11-21T06:08:27;99924.27;;;8.48;60.95
83025;BME280;72958;53.326;-1.496;2023-11-21T06:11:40;99928.21;;;8.99;59.08
83025;BME280;72958;53.326;-1.496;2023-11-21T06:14:07;99932.82;;;9.09;59.02
83025;BME280;72958;53.326;-1.496;2023-11-21T06:16:33;99936.36;;;9.35;58.16
83025;BME280;72958;53.326;-1.496;2023-11-21T06:19:04;99944.10;;;8.45;61.30
83025;BME280;72958;53.326;-1.496;2023-11-21T06:21:36;99946.75;;;8.99;58.90
83025;BME280;72958;53.326;-1.496;2023-11-21T06:25:02;99959.02;;;9.17;58.83
83025;BME280;72958;53.326;-1.496;2023-11-21T06:27:29;99960.09;;;9.44;57.53
83025;BME280;72958;53.326;-1.496;2023-11-21T06:29:57;99983.24;;;8.53;59.78
83025;BME280;72958;53.326;-1.496;2023-11-21T06:32:46;99971.28;;;8.95;59.02
83025;BME280;72958;53.326;-1.496;2023-11-21T06:35:36;99977.77;;;8.62;61.63
83025;BME280;72958;53.326;-1.496;2023-11-21T06:38:07;99975.45;;;8.23;62.07
83025;BME280;72958;53.326;-1.496;2023-11-21T06:40:40;99973.63;;;8.54;61.10
83025;BME280;72958;53.326;-1.496;2023-11-21T06:43:07;99983.47;;;9.00;59.52
83025;BME280;72958;53.326;-1.496;2023-11-21T06:46:16;99988.65;;;8.98;59.00
83025;BME280;72958;53.326;-1.496;2023-11-21T06:49:08;99999.48;;;8.12;60.50
83025;BME280;72958;53.326;-1.496;2023-11-21T06:52:29;100011.02;;;8.88;60.76
83025;BME280;72958;53.326;-1.496;2023-11-21T06:55:21;100013.23;;;9.00;58.74
83025;BME280;72958;53.326;-1.496;2023-11-21T06:58:33;100026.83;;;9.05;58.67
83025;BME280;72958;53.326;-1.496;2023-11-21T07:01:14;100031.02;;;8.95;59.25
83025;BME280;72958;53.326;-1.496;2023-11-21T07:03:57;100035.89;;;9.61;58.66
83025;BME280;72958;53.326;-1.496;2023-11-21T07:06:32;100048.19;;;9.06;59.99
83025;BME280;72958;53.326;-1.496;2023-11-21T07:09:12;100059.66;;;8.74;60.79
83025;BME280;72958;53.326;-1.496;2023-11-21T07:11:37;100053.27;;;7.91;62.42
83025;BME280;72958;53.326;-1.496;2023-11-21T07:14:21;100058.27;;;8.75;59.85
83025;BME280;72958;53.326;-1.496;2023-11-21T07:17:00;100057.02;;;8.64;61.12
83025;BME280;72958;53.326;-1.496;2023-11-21T07:20:08;100073.95;;;7.99;63.23
83025;BME280;72958;53.326;-1.496;2023-11-21T07:22:33;100078.44;;;8.17;62.82
83025;BME280;72958;53.326;-1.496;2023-11-21T07:25:01;100095.35;;;8.02;63.48
83025;BME280;72958;53.326;-1.496;2023-11-21T07:28:16;100097.68;;;8.27;62.80
83025;BME280;72958;53.326;-1.496;2023-11-21T07:31:06;100106.96;;;8.54;61.49
83025;BME280;72958;53.326;-1.496;2023-11-21T07:33:33;100112.26;;;8.40;61.56
83025;BME280;72958;53.326;-1.496;2023-11-21T07:36:12;100106.24;;;8.60;60.96
83025;BME280;72958;53.326;-1.496;2023-11-21T07:38:45;100102.90;;;8.90;59.42
83025;BME280;72958;53.326;-1.496;2023-11-21T07:42:56;100103.36;;;8.23;60.72
83025;BME280;72958;53.326;-1.496;2023-11-21T07:46:21;100129.25;;;8.28;61.47
83025;BME280;72958;53.326;-1.496;2023-11-21T07:49:49;100134.93;;;8.81;59.67
83025;BME280;72958;53.326;-1.496;2023-11-21T07:52:30;100138.07;;;9.00;59.15
83025;BME280;72958;53.326;-1.496;2023-11-21T07:54:58;100138.17;;;8.85;59.39
83025;BME280;72958;53.326;-1.496;2023-11-21T07:59:17;100135.72;;;8.79;58.87
83025;BME280;72958;53.326;-1.496;2023-11-21T08:01:59;100145.56;;;8.28;60.15
83025;BME280;72958;53.326;-1.496;2023-11-21T08:05:30;100158.20;;;8.63;60.73
83025;BME280;72958;53.326;-1.496;2023-11-21T08:08:12;100162.92;;;8.41;61.32
83025;BME280;72958;53.326;-1.496;2023-11-21T08:10:50;100169.00;;;8.56;61.09
83025;BME280;72958;53.326;-1.496;2023-11-21T08:13:17;100169.09;;;8.84;60.12
83025;BME280;72958;53.326;-1.496;2023-11-21T08:16:29;100168.16;;;8.12;61.66
83025;BME280;72958;53.326;-1.496;2023-11-21T08:19:00;100184.19;;;8.46;60.93
83025;BME280;72958;53.326;-1.496;2023-11-21T08:21:26;100183.46;;;8.36;61.59
83025;BME280;72958;53.326;-1.496;2023-11-21T08:23:58;100199.33;;;8.15;61.53
83025;BME280;72958;53.326;-1.496;2023-11-21T08:26:47;100202.46;;;8.09;62.18
83025;BME280;72958;53.326;-1.496;2023-11-21T08:29:34;100205.44;;;7.12;65.21
83025;BME280;72958;53.326;-1.496;2023-11-21T08:32:02;100196.61;;;7.89;63.38
83025;BME280;72958;53.326;-1.496;2023-11-21T08:34:27;100204.37;;;8.66;60.70
83025;BME280;72958;53.326;-1.496;2023-11-21T08:37:01;100210.72;;;8.07;61.97
83025;BME280;72958;53.326;-1.496;2023-11-21T08:40:17;100218.51;;;7.80;63.57
83025;BME280;72958;53.326;-1.496;2023-11-21T08:42:55;100230.12;;;8.08;61.99
83025;BME280;72958;53.326;-1.496;2023-11-21T08:45:27;100235.68;;;7.78;62.30
83025;BME280;72958;53.326;-1.496;2023-11-21T08:48:37;100245.39;;;7.65;62.86
83025;BME280;72958;53.326;-1.496;2023-11-21T08:51:21;100248.32;;;8.09;61.85
83025;BME280;72958;53.326;-1.496;2023-11-21T08:53:55;100254.02;;;8.62;60.01
83025;BME280;72958;53.326;-1.496;2023-11-21T08:56:30;100260.01;;;9.18;58.69
83025;BME280;72958;53.326;-1.496;2023-11-21T08:58:59;100267.34;;;8.88;57.92
83025;BME280;72958;53.326;-1.496;2023-11-21T09:01:33;100264.96;;;9.08;57.90
83025;BME280;72958;53.326;-1.496;2023-11-21T09:04:02;100272.98;;;9.34;57.61
83025;BME280;72958;53.326;-1.496;2023-11-21T09:07:06;100271.20;;;9.40;56.82
83025;BME280;72958;53.326;-1.496;2023-11-21T09:09:56;100279.57;;;9.59;56.25
83025;BME280;72958;53.326;-1.496;2023-11-21T09:12:27;100287.63;;;9.76;55.74
83025;BME280;72958;53.326;-1.496;2023-11-21T09:15:03;100284.18;;;10.01;54.93
83025;BME280;72958;53.326;-1.496;2023-11-21T09:18:06;100291.48;;;9.94;55.02
83025;BME280;72958;53.326;-1.496;2023-11-21T09:20:42;100298.18;;;9.99;55.17
83025;BME280;72958;53.326;-1.496;2023-11-21T09:23:07;100299.85;;;9.25;56.64
83025;BME280;72958;53.326;-1.496;2023-11-21T09:25:58;100304.54;;;9.66;55.97
83025;BME280;72958;53.326;-1.496;2023-11-21T09:28:44;100308.54;;;9.99;54.56
83025;BME280;72958;53.326;-1.496;2023-11-21T09:31:12;100306.29;;;10.72;53.33
83025;BME280;72958;53.326;-1.496;2023-11-21T09:34:44;100311.28;;;9.67;54.86
83025;BME280;72958;53.326;-1.496;2023-11-21T09:37:11;100322.31;;;9.71;54.51
83025;BME280;72958;53.326;-1.496;2023-11-21T09:40:11;100338.07;;;10.07;54.13
83025;BME280;72958;53.326;-1.496;2023-11-21T09:43:59;100344.21;;;9.49;54.77
83025;BME280;72958;53.326;-1.496;2023-11-21T09:46:31;100342.19;;;9.23;55.26
83025;BME280;72958;53.326;-1.496;2023-11-21T09:49:00;100350.65;;;9.20;54.90
83025;BME280;72958;53.326;-1.496;2023-11-21T09:51:30;100351.04;;;9.55;54.22
83025;BME280;72958;53.326;-1.496;2023-11-21T09:54:42;100359.54;;;9.43;54.12
83025;BME280;72958;53.326;-1.496;2023-11-21T09:57:29;100363.56;;;9.96;52.99
83025;BME280;72958;53.326;-1.496;2023-11-21T10:00:11;100367.61;;;9.96;51.81
83025;BME280;72958;53.326;-1.496;2023-11-21T10:03:18;100376.68;;;9.49;52.66
83025;BME280;72958;53.326;-1.496;2023-11-21T10:05:56;100369.88;;;8.39;56.47
83025;BME280;72958;53.326;-1.496;2023-11-21T10:08:32;100379.21;;;9.50;54.38
83025;BME280;72958;53.326;-1.496;2023-11-21T10:11:29;100375.23;;;9.40;54.64
83025;BME280;72958;53.326;-1.496;2023-11-21T10:14:39;100376.38;;;9.36;54.25
83025;BME280;72958;53.326;-1.496;2023-11-21T10:17:40;100389.76;;;8.98;54.42
83025;BME280;72958;53.326;-1.496;2023-11-21T10:20:11;100402.20;;;9.24;53.12
83025;BME280;72958;53.326;-1.496;2023-11-21T10:22:56;100399.90;;;9.76;52.41
83025;BME280;72958;53.326;-1.496;2023-11-21T10:25:29;100407.67;;;9.85;51.91
83025;BME280;72958;53.326;-1.496;2023-11-21T10:28:35;100414.87;;;10.14;50.74
83025;BME280;72958;53.326;-1.496;2023-11-21T10:31:43;100412.51;;;10.86;48.74
83025;BME280;72958;53.326;-1.496;2023-11-21T10:34:17;100414.56;;;10.10;48.97
83025;BME280;72958;53.326;-1.496;2023-11-21T10:36:59;100419.30;;;10.57;49.87
83025;BME280;72958;53.326;-1.496;2023-11-21T10:39:50;100425.67;;;10.31;48.80
83025;BME280;72958;53.326;-1.496;2023-11-21T10:42:18;100432.35;;;10.44;48.60
83025;BME280;72958;53.326;-1.496;2023-11-21T10:44:46;100437.03;;;10.58;48.68
83025;BME280;72958;53.326;-1.496;2023-11-21T10:47:44;100439.71;;;10.80;47.95
83025;BME280;72958;53.326;-1.496;2023-11-21T10:50:48;100428.66;;;11.19;46.79
83025;BME280;72958;53.326;-1.496;2023-11-21T10:53:19;100427.12;;;11.73;46.58
83025;BME280;72958;53.326;-1.496;2023-11-21T10:55:48;100432.70;;;11.61;46.66
83025;BME280;72958;53.326;-1.496;2023-11-21T10:58:22;100441.21;;;11.34;45.93
83025;BME280;72958;53.326;-1.496;2023-11-21T11:01:08;100445.32;;;10.91;46.28
83025;BME280;72958;53.326;-1.496;2023-11-21T11:04:12;100448.79;;;11.63;45.94
83025;BME280;72958;53.326;-1.496;2023-11-21T11:06:43;100456.83;;;12.03;45.16
83025;BME280;72958;53.326;-1.496;2023-11-21T11:09:47;100453.19;;;12.01;44.53
83025;BME280;72958;53.326;-1.496;2023-11-21T11:14:18;100452.84;;;11.13;45.75
83025;BME280;72958;53.326;-1.496;2023-11-21T11:17:42;100454.25;;;10.99;45.99
83025;BME280;72958;53.326;-1.496;2023-11-21T11:20:13;100451.34;;;11.58;45.81
83025;BME280;72958;53.326;-1.496;2023-11-21T11:23:09;100453.97;;;11.67;44.92
83025;BME280;72958;53.326;-1.496;2023-11-21T11:25:40;100457.57;;;11.62;45.86
83025;BME280;72958;53.326;-1.496;2023-11-21T11:28:03;100464.88;;;11.12;45.38
83025;BME280;72958;53.326;-1.496;2023-11-21T11:30:41;100458.73;;;10.67;47.25
83025;BME280;72958;53.326;-1.496;2023-11-21T11:33:31;100455.40;;;10.88;45.51
83025;BME280;72958;53.326;-1.496;2023-11-21T11:36:18;100454.47;;;11.25;45.79
83025;BME280;72958;53.326;-1.496;2023-11-21T11:42:08;100462.95;;;11.49;43.38
83025;BME280;72958;53.326;-1.496;2023-11-21T11:45:18;100471.75;;;11.30;44.27
83025;BME280;72958;53.326;-1.496;2023-11-21T11:48:05;100477.16;;;10.99;42.97
83025;BME280;72958;53.326;-1.496;2023-11-21T11:54:40;100486.35;;;10.44;43.45
83025;BME280;72958;53.326;-1.496;2023-11-21T11:57:08;100487.04;;;11.40;44.55
83025;BME280;72958;53.326;-1.496;2023-11-21T12:02:28;100481.66;;;10.64;42.89
83025;BME280;72958;53.326;-1.496;2023-11-21T12:05:21;100484.57;;;10.67;44.58
83025;BME280;72958;53.326;-1.496;2023-11-21T12:07:51;100477.86;;;11.01;43.73
83025;BME280;72958;53.326;-1.496;2023-11-21T12:10:32;100475.08;;;10.89;43.15
83025;BME280;72958;53.326;-1.496;2023-11-21T12:12:58;100482.31;;;10.83;42.57
83025;BME280;72958;53.326;-1.496;2023-11-21T12:15:41;100494.72;;;10.98;42.42
83025;BME280;72958;53.326;-1.496;2023-11-21T12:18:07;100495.96;;;10.56;43.28
83025;BME280;72958;53.326;-1.496;2023-11-21T12:21:31;100491.44;;;10.63;43.65
83025;BME280;72958;53.326;-1.496;2023-11-21T12:23:57;100490.62;;;11.08;42.45
83025;BME280;72958;53.326;-1.496;2023-11-21T12:26:30;100489.19;;;11.86;42.16
83025;BME280;72958;53.326;-1.496;2023-11-21T12:28:58;100482.29;;;11.73;41.64
83025;BME280;72958;53.326;-1.496;2023-11-21T12:31:42;100475.77;;;10.79;42.56
83025;BME280;72958;53.326;-1.496;2023-11-21T12:34:11;100481.11;;;10.00;45.65
83025;BME280;72958;53.326;-1.496;2023-11-21T12:36:50;100483.40;;;10.52;45.28
83025;BME280;72958;53.326;-1.496;2023-11-21T12:39:22;100480.37;;;10.93;44.17
83025;BME280;72958;53.326;-1.496;2023-11-21T12:41:57;100486.36;;;10.74;43.22
83025;BME280;72958;53.326;-1.496;2023-11-21T12:44:23;100489.57;;;10.68;42.60
83025;BME280;72958;53.326;-1.496;2023-11-21T12:47:17;100495.49;;;11.19;42.91
83025;BME280;72958;53.326;-1.496;2023-11-21T12:49:51;100499.22;;;11.71;40.88
83025;BME280;72958;53.326;-1.496;2023-11-21T12:52:18;100493.02;;;11.90;40.89
83025;BME280;72958;53.326;-1.496;2023-11-21T12:55:22;100484.33;;;12.90;39.58
83025;BME280;72958;53.326;-1.496;2023-11-21T12:57:57;100485.38;;;12.67;39.92
83025;BME280;72958;53.326;-1.496;2023-11-21T13:00:34;100492.25;;;12.38;39.98
83025;BME280;72958;53.326;-1.496;2023-11-21T13:03:27;100502.20;;;10.98;42.92
83025;BME280;72958;53.326;-1.496;2023-11-21T13:06:15;100512.15;;;10.24;44.54
83025;BME280;72958;53.326;-1.496;2023-11-21T13:08:41;100513.35;;;11.15;44.75
83025;BME280;72958;53.326;-1.496;2023-11-21T13:11:14;100524.51;;;10.64;45.55
83025;BME280;72958;53.326;-1.496;2023-11-21T13:13:51;100528.94;;;10.92;43.99
83025;BME280;72958;53.326;-1.496;2023-11-21T13:16:17;100534.87;;;11.72;43.13
83025;BME280;72958;53.326;-1.496;2023-11-21T13:18:45;100541.40;;;11.47;43.89
83025;BME280;72958;53.326;-1.496;2023-11-21T13:21:16;100539.71;;;10.65;46.12
83025;BME280;72958;53.326;-1.496;2023-11-21T13:24:30;100537.97;;;11.42;44.88
83025;BME280;72958;53.326;-1.496;2023-11-21T13:27:11;100538.50;;;11.66;43.75
83025;BME280;72958;53.326;-1.496;2023-11-21T13:29:49;100535.17;;;12.29;42.50
83025;BME280;72958;53.326;-1.496;2023-11-21T13:32:43;100539.66;;;12.27;42.54
83025;BME280;72958;53.326;-1.496;2023-11-21T13:36:31;100554.54;;;11.12;44.76
83025;BME280;72958;53.326;-1.496;2023-11-21T13:39:00;100563.53;;;10.80;44.98
83025;BME280;72958;53.326;-1.496;2023-11-21T13:41:30;100569.96;;;10.39;47.03
83025;BME280;72958;53.326;-1.496;2023-11-21T13:44:11;100569.63;;;10.94;45.22
83025;BME280;72958;53.326;-1.496;2023-11-21T13:46:39;100578.99;;;11.02;45.58
83025;BME280;72958;53.326;-1.496;2023-11-21T13:49:04;100580.62;;;10.90;44.75
83025;BME280;72958;53.326;-1.496;2023-11-21T13:51:30;100587.34;;;11.42;43.86
83025;BME280;72958;53.326;-1.496;2023-11-21T13:54:14;100579.05;;;11.55;44.05
83025;BME280;72958;53.326;-1.496;2023-11-21T13:56:42;100577.47;;;11.28;43.72
83025;BME280;72958;53.326;-1.496;2023-11-21T13:59:22;100561.62;;;12.16;42.44
83025;BME280;72958;53.326;-1.496;2023-11-21T14:01:50;100559.30;;;11.59;42.51
83025;BME280;72958;53.326;-1.496;2023-11-21T14:04:37;100562.55;;;13.01;41.76
83025;BME280;72958;53.326;-1.496;2023-11-21T14:07:36;100570.04;;;12.56;40.51
83025;BME280;72958;53.326;-1.496;2023-11-21T14:10:11;100560.54;;;11.63;42.26
83025;BME280;72958;53.326;-1.496;2023-11-21T14:13:08;100553.78;;;12.37;41.30
83025;BME280;72958;53.326;-1.496;2023-11-21T14:16:03;100566.76;;;12.43;39.96
83025;BME280;72958;53.326;-1.496;2023-11-21T14:18:43;100569.56;;;13.17;38.85
83025;BME280;72958;53.326;-1.496;2023-11-21T14:21:21;100581.33;;;12.59;40.49
83025;BME280;72958;53.326;-1.496;2023-11-21T14:24:11;100586.32;;;12.28;41.62
83025;BME280;72958;53.326;-1.496;2023-11-21T14:26:39;100566.55;;;11.44;42.79
83025;BME280;72958;53.326;-1.496;2023-11-21T14:29:15;100562.71;;;11.20;43.65
83025;BME280;72958;53.326;-1.496;2023-11-21T14:32:34;100587.57;;;10.95;45.48
83025;BME280;72958;53.326;-1.496;2023-11-21T14:35:09;100581.19;;;11.29;43.56
83025;BME280;72958;53.326;-1.496;2023-11-21T14:37:35;100568.27;;;11.86;41.67